Airfield :
LOGIN :

Register | Disclaimer

   EN    FR    IT 

 










Legend :    VFR   Marginal VFR   IFR   Intensive IFR   Very Intensive IFR
Visi :
Ceiling :
>= 8 km
>= 3000ft
5 to 8 km
1000 to 3000 ft
1500m to 5 km
500 to 1000 ft
800 to 1500m
200 to 500 ft
< 800m
< 200 ft
Symbols :   Thunderstorms  Fog  Heavy snow  Heavy precipitations  Wind > 20 kt
SIGMETs :     Misc.  Thunderstorms  Icing  Turbulence  Mountain Waves  Volcanic Ashes






- Airport Elevation : 1115 ft
- IATA code : GRZ


LOWG - Graz

CURRENT METAR :
  • 040820Z VRB03KT 9999 FEW020 BKN025 21/17 Q1006 NOSIG

EXPIRED METARs :
  • 040750Z VRB01KT 9999 FEW015 SCT020 BKN022 19/16 Q1006 NOSIG
  • 040720Z VRB01KT 9999 FEW010 SCT016 BKN021 19/16 Q1006 NOSIG
  • 040650Z 28003KT 250V350 9999 FEW010 SCT016 BKN021 19/16 Q1006 NOSIG
  • 040620Z VRB01KT 9999 FEW009 SCT015 BKN020 19/17 Q1005 NOSIG

TAF TAF LOWG
Valid from the 04 at 06:00 until the 05 at 06:00 UTC


040515Z 0406/0506 VRB04KT 9999 FEW020 SCT040 TX22/0411Z TN15/0504Z
TEMPO 0406/0419 -SHRA FEW040CB BKN060
TEMPO 0412/0418 SHRA
PROB40
TEMPO 0413/0417 VRB12KT TSRA SCT040CB BKN050
TEMPO 0420/0506 35007KT



MET'MAP, your aeronautical weather chart ! - Copyright ORBIFLY December 2007 - Disclaimer

ORBIFLY MET'MAP TEAM :

Programming & Development : Alexandra Zaïnal
Concept & original design : Baudouin d'Aumeries
Assistance for programming : Marc-Olivier Méhu
Technical & hardware support : Manuel Goepfert

Contact : metmap@orbifly.com




SOURCES & CREDITS :

   NOAA